Time;durP1;ratioP1;P1;durP2;ratioP2;P2;SDS_P1;SDS_P2;PMS_P1;PMS_P2;Temp;Humidity;BMP_temperature;BMP_pressure;BME280_temperature;BME280_humidity;BME280_pressure;Samples;Min_cycle;Max_cycle;Signal;HPM_P1;HPM_P2
2022/08/12 00:44:26;;;;;;;2.67;2.47;;;;;;;21.00;47.60;101310.25;5004209;28;20262;-82
2022/08/12 00:46:57;;;;;;;4.30;2.50;;;;;;;21.01;47.81;101293.41;5003801;28;20623;-80
2022/08/12 00:49:25;;;;;;;2.70;2.50;;;;;;;20.95;47.32;101305.19;5004012;28;20339;-83
2022/08/12 00:52:06;;;;;;;5.17;2.50;;;;;;;20.92;47.36;101321.22;5003305;28;20235;-80
2022/08/12 00:54:35;;;;;;;2.77;2.57;;;;;;;20.93;47.92;101298.19;5004526;28;20259;-80
2022/08/12 00:57:04;;;;;;;2.70;2.50;;;;;;;20.88;47.30;101295.78;5004670;28;20254;-80
2022/08/12 00:59:31;;;;;;;2.90;2.60;;;;;;;20.86;47.12;101320.69;5004583;28;20271;-80
2022/08/12 01:02:02;;;;;;;3.10;2.80;;;;;;;20.89;48.04;101305.47;5004435;28;20230;-82
2022/08/12 01:12:44;;;;;;;4.27;2.73;;;;;;;20.86;48.30;101284.38;5023400;28;20262;-80
2022/08/12 01:15:12;;;;;;;3.37;2.47;;;;;;;20.91;47.99;101286.78;5022515;28;20613;-81
2022/08/12 01:17:42;;;;;;;3.83;2.63;;;;;;;20.91;48.26;101297.41;5023407;28;20202;-82
2022/08/12 01:20:18;;;;;;;3.20;2.23;;;;;;;20.93;49.03;101267.22;5023737;28;20208;-80
2022/08/12 01:22:58;;;;;;;2.63;2.43;;;;;;;20.59;48.81;101305.13;5022705;28;20316;-82
2022/08/12 01:25:34;;;;;;;2.33;2.13;;;;;;;20.52;48.53;101293.91;5023440;28;20234;-79
2022/08/12 01:28:03;;;;;;;2.80;2.60;;;;;;;20.29;48.09;101297.63;5022544;28;20293;-80
2022/08/12 01:30:32;;;;;;;3.23;2.93;;;;;;;19.98;49.20;101290.19;5022083;28;20591;-80
2022/08/12 01:33:03;;;;;;;3.30;2.33;;;;;;;20.13;49.20;101265.66;5023270;28;20231;-80
2022/08/12 01:35:32;;;;;;;3.70;2.67;;;;;;;20.30;48.74;101272.00;5024249;28;20214;-82
2022/08/12 01:38:04;;;;;;;2.50;2.30;;;;;;;20.35;49.07;101277.91;5024602;28;20211;-80
2022/08/12 01:40:37;;;;;;;5.07;2.53;;;;;;;20.27;49.57;101265.00;5023920;28;20866;-80
2022/08/12 01:43:06;;;;;;;2.77;2.57;;;;;;;20.30;49.56;101240.16;5024357;28;20261;-81
2022/08/12 01:45:39;;;;;;;2.80;2.60;;;;;;;20.30;48.86;101264.88;5023340;28;20253;-82
2022/08/12 01:48:19;;;;;;;2.93;2.60;;;;;;;20.25;49.33;101274.84;5023504;28;20195;-82
2022/08/12 01:50:55;;;;;;;3.67;2.60;;;;;;;20.17;50.23;101259.28;5022361;28;20215;-82
2022/08/12 01:53:25;;;;;;;3.67;2.30;;;;;;;20.05;50.21;101254.53;5022244;28;20237;-82
2022/08/12 01:55:55;;;;;;;2.60;2.40;;;;;;;20.07;49.95;101234.13;5023241;28;20211;-82
2022/08/12 01:58:29;;;;;;;2.67;2.47;;;;;;;20.12;49.28;101250.69;5023621;28;20280;-80
2022/08/12 02:01:02;;;;;;;2.80;2.60;;;;;;;20.06;50.48;101248.31;5022579;28;20207;-80
2022/08/12 02:12:28;;;;;;;2.30;2.20;;;;;;;19.81;51.12;101196.41;5023419;28;20265;-81
2022/08/12 02:15:03;;;;;;;2.70;2.27;;;;;;;19.76;51.67;101193.13;5022975;28;20321;-83
2022/08/12 02:17:48;;;;;;;2.50;2.30;;;;;;;19.75;51.71;101182.59;5023926;28;20225;-80
2022/08/12 02:20:23;;;;;;;2.40;2.20;;;;;;;19.69;51.52;101189.00;5023311;28;20210;-80
2022/08/12 02:22:51;;;;;;;2.43;2.33;;;;;;;19.67;51.32;101187.38;5023503;28;20230;-80
2022/08/12 02:25:22;;;;;;;2.70;2.50;;;;;;;19.74;50.83;101208.25;5023499;28;20723;-80
2022/08/12 02:27:53;;;;;;;2.47;2.27;;;;;;;19.81;49.82;101232.66;5023907;28;20242;-80
2022/08/12 02:30:22;;;;;;;2.80;2.60;;;;;;;19.76;50.17;101256.72;5023193;28;20222;-80
2022/08/12 02:32:51;;;;;;;2.20;2.00;;;;;;;19.72;50.23;101247.19;5022690;28;20285;-80
2022/08/12 02:35:22;;;;;;;3.17;2.23;;;;;;;19.75;50.63;101246.19;5023340;28;20242;-81
2022/08/12 02:37:52;;;;;;;3.20;2.90;;;;;;;19.66;51.79;101228.84;5013131;28;20203;-80
2022/08/12 02:40:20;;;;;;;4.73;2.60;;;;;;;19.63;51.54;101194.56;5021645;28;20218;-82
2022/08/12 02:42:54;;;;;;;4.10;2.97;;;;;;;19.51;51.31;101200.44;5021305;28;20231;-80
2022/08/12 02:45:25;;;;;;;2.80;2.53;;;;;;;19.42;51.70;101210.50;5020357;28;20191;-82
2022/08/12 02:47:54;;;;;;;3.40;2.73;;;;;;;19.44;51.31;101191.88;5021558;28;20223;-83
2022/08/12 02:50:26;;;;;;;2.87;2.60;;;;;;;19.34;52.04;101199.34;5021451;28;20230;-80
2022/08/12 02:52:54;;;;;;;2.97;2.63;;;;;;;19.29;52.43;101180.19;5021217;28;20263;-80
2022/08/12 02:55:26;;;;;;;4.73;2.87;;;;;;;19.33;52.38;101173.81;5021091;28;20941;-81
2022/08/12 02:57:56;;;;;;;2.97;2.77;;;;;;;19.30;51.89;101173.94;5021274;28;20209;-82
2022/08/12 03:00:23;;;;;;;3.30;2.93;;;;;;;19.29;53.04;101174.88;5020266;28;20206;-82
2022/08/12 03:02:52;;;;;;;2.73;2.53;;;;;;;19.28;51.58;101170.50;5021782;28;20253;-80
2022/08/12 03:05:23;;;;;;;4.93;2.33;;;;;;;19.33;51.88;101202.09;5021763;28;20644;-81
2022/08/12 03:07:58;;;;;;;3.13;2.90;;;;;;;19.24;52.05;101198.03;5013223;28;20202;-81
2022/08/12 03:10:25;;;;;;;3.13;2.93;;;;;;;19.12;52.24;101190.63;5021380;28;20186;-80
2022/08/12 03:12:56;;;;;;;4.73;2.93;;;;;;;19.10;52.90;101169.50;5021117;28;20851;-80
2022/08/12 03:15:23;;;;;;;3.00;2.63;;;;;;;19.17;52.17;101178.94;5020944;28;20187;-80
2022/08/12 03:17:53;;;;;;;4.13;3.00;;;;;;;19.03;52.43;101176.88;5021776;28;20318;-81
2022/08/12 03:20:21;;;;;;;3.07;2.80;;;;;;;19.01;52.48;101176.06;5022427;28;20218;-80
2022/08/12 03:22:49;;;;;;;4.30;3.30;;;;;;;19.08;52.65;101152.00;5021699;28;20261;-81
2022/08/12 03:25:20;;;;;;;4.53;3.50;;;;;;;18.96;53.13;101156.88;5021446;28;20621;-79
2022/08/12 03:27:50;;;;;;;3.33;2.77;;;;;;;18.89;52.90;101175.72;5022053;28;20191;-80
2022/08/12 03:30:20;;;;;;;4.00;2.87;;;;;;;18.59;52.19;101170.72;5023108;28;20281;-81
2022/08/12 03:32:49;;;;;;;3.90;2.73;;;;;;;18.65;53.50;101163.44;5021719;28;20296;-81
2022/08/12 03:35:23;;;;;;;3.53;3.33;;;;;;;18.64;53.49;101150.25;5022654;28;20665;-82
2022/08/12 03:37:50;;;;;;;2.73;2.53;;;;;;;18.68;53.28;101135.13;5015337;28;20229;-81
2022/08/12 04:02:18;;;;;;;3.20;3.00;;;;;;;18.31;55.34;101096.97;5025916;28;20250;-80
2022/08/12 04:04:46;;;;;;;2.90;2.70;;;;;;;18.34;54.64;101105.66;5026219;28;20214;-81
2022/08/12 04:07:13;;;;;;;4.83;2.73;;;;;;;18.32;54.70;101128.63;5026623;28;20573;-81
2022/08/12 04:09:41;;;;;;;4.90;2.80;;;;;;;18.27;54.82;101127.94;5025984;28;20613;-81
2022/08/12 04:14:55;;;;;;;3.70;3.40;;;;;;;18.37;54.57;101139.00;5026507;28;20577;-80
2022/08/12 04:17:25;;;;;;;3.20;3.00;;;;;;;18.32;54.90;101119.84;5026653;28;20301;-82
2022/08/12 04:19:53;;;;;;;3.60;3.10;;;;;;;18.29;55.20;101123.47;5026469;28;20222;-81
2022/08/12 04:22:21;;;;;;;3.40;3.20;;;;;;;18.31;55.41;101123.41;5025711;28;20292;-80
2022/08/12 04:24:47;;;;;;;3.30;3.10;;;;;;;18.22;56.07;101106.16;5025759;28;20203;-81
2022/08/12 04:27:14;;;;;;;3.07;2.87;;;;;;;18.16;56.59;101086.09;5026402;28;20211;-80
2022/08/12 04:29:40;;;;;;;4.67;3.17;;;;;;;18.12;57.04;101066.03;5027377;28;20211;-81
2022/08/12 04:32:07;;;;;;;3.27;3.07;;;;;;;18.06;57.16;101047.78;5026510;28;20719;-82
2022/08/12 04:34:38;;;;;;;3.63;3.13;;;;;;;18.11;57.26;101050.22;5025869;28;20214;-81
2022/08/12 04:37:04;;;;;;;3.57;3.30;;;;;;;18.10;58.05;101045.88;5026717;28;20681;-82
2022/08/12 04:39:31;;;;;;;2.83;2.67;;;;;;;18.13;57.39;101028.09;5027137;28;20219;-80
2022/08/12 04:41:59;;;;;;;3.70;3.40;;;;;;;18.22;56.83;101050.66;5028655;28;20203;-80
2022/08/12 04:44:26;;;;;;;3.20;2.90;;;;;;;18.24;57.17;101054.09;5029258;28;20211;-82
2022/08/12 04:46:53;;;;;;;3.20;3.00;;;;;;;18.28;57.58;101052.19;5026549;28;20218;-81
2022/08/12 04:49:21;;;;;;;3.47;3.17;;;;;;;18.22;57.67;101030.38;5028178;28;20257;-80
2022/08/12 04:51:49;;;;;;;3.13;2.87;;;;;;;18.34;57.55;101046.66;5026576;28;20618;-81
2022/08/12 04:54:15;;;;;;;3.37;3.07;;;;;;;18.32;57.88;101033.50;5027324;28;20207;-81
2022/08/12 04:56:44;;;;;;;2.97;2.77;;;;;;;18.39;57.35;101039.38;5025916;28;20206;-81
2022/08/12 04:59:14;;;;;;;4.00;3.10;;;;;;;18.45;56.80;101053.22;5026102;28;20269;-81
2022/08/12 05:01:41;;;;;;;5.17;3.13;;;;;;;18.46;56.65;101069.91;5024802;28;20210;-80
2022/08/12 05:04:09;;;;;;;3.20;3.00;;;;;;;18.53;56.66;101074.03;5023426;28;20215;-80
2022/08/12 05:06:35;;;;;;;5.30;2.90;;;;;;;18.58;56.50;101090.56;5027807;28;20249;-79
2022/08/12 05:09:03;;;;;;;3.30;3.07;;;;;;;18.62;56.51;101089.50;5027938;28;20211;-80
2022/08/12 05:11:30;;;;;;;3.20;3.00;;;;;;;18.64;56.82;101103.50;5028760;28;20231;-81
2022/08/12 05:13:59;;;;;;;2.40;2.30;;;;;;;18.68;56.66;101077.81;5026941;28;20218;-81
2022/08/12 05:16:26;;;;;;;3.27;2.90;;;;;;;18.66;57.22;101082.28;5024746;28;20234;-82
2022/08/12 05:18:53;;;;;;;4.90;3.67;;;;;;;18.67;57.83;101078.72;5025486;28;20199;-82
2022/08/12 05:21:19;;;;;;;3.40;3.20;;;;;;;18.54;58.50;101051.94;5026471;28;20249;-79
2022/08/12 05:23:46;;;;;;;3.63;3.27;;;;;;;18.57;58.83;101043.91;5026444;28;20223;-82
2022/08/12 05:26:13;;;;;;;3.60;3.30;;;;;;;18.60;58.57;101030.53;5024454;28;20668;-80
2022/08/12 05:28:40;;;;;;;3.03;2.73;;;;;;;18.66;58.02;101051.41;5027620;28;20195;-81
2022/08/12 05:31:07;;;;;;;3.37;3.17;;;;;;;18.69;57.76;101065.44;5026709;28;20246;-80
2022/08/12 05:33:37;;;;;;;3.63;3.10;;;;;;;18.75;58.51;101055.47;5026122;28;20233;-82
2022/08/12 05:36:07;;;;;;;3.57;3.30;;;;;;;18.80;58.39;101056.16;5020792;28;20210;-81
2022/08/12 05:41:20;;;;;;;4.33;3.77;;;;;;;18.87;58.05;101061.16;5016789;28;20285;-80
2022/08/12 05:43:49;;;;;;;3.30;3.07;;;;;;;18.89;58.03;101072.53;5016762;28;20277;-80
2022/08/12 05:46:15;;;;;;;4.93;4.63;;;;;;;18.93;57.83;101075.00;5016099;28;20207;-81
2022/08/12 05:48:42;;;;;;;4.50;4.03;;;;;;;18.87;58.31;101075.28;5017205;28;20719;-80
2022/08/12 05:51:10;;;;;;;5.80;4.10;;;;;;;18.87;58.97;101059.41;5021803;28;20202;-80
2022/08/12 05:53:36;;;;;;;6.27;4.17;;;;;;;18.91;59.29;101036.28;5021635;28;20227;-79
2022/08/12 05:56:03;;;;;;;4.30;3.90;;;;;;;18.97;59.30;101044.84;5019669;28;20267;-81
2022/08/12 05:58:33;;;;;;;3.87;3.57;;;;;;;19.02;58.84;101052.56;5021042;28;20207;-82
2022/08/12 06:01:00;;;;;;;4.73;3.50;;;;;;;19.09;58.96;101064.59;5022021;28;20209;-80
2022/08/12 06:03:26;;;;;;;3.10;2.90;;;;;;;19.00;58.95;101079.09;5021982;28;20229;-81
2022/08/12 06:05:55;;;;;;;3.57;3.27;;;;;;;19.00;58.72;101075.59;5021228;28;20284;-79
2022/08/12 06:08:23;;;;;;;4.67;4.27;;;;;;;18.90;59.81;101058.41;5021739;28;20223;-80
2022/08/12 06:10:50;;;;;;;3.80;3.50;;;;;;;18.79;59.84;101053.53;5021729;28;20210;-80
2022/08/12 06:13:17;;;;;;;5.10;3.97;;;;;;;18.74;60.36;101043.16;5020988;28;20231;-82
2022/08/12 06:15:45;;;;;;;3.57;3.27;;;;;;;18.80;60.00;101032.34;5019977;28;20235;-81
2022/08/12 06:18:12;;;;;;;3.87;3.47;;;;;;;18.89;60.44;101030.22;5020839;28;20202;-80
2022/08/12 06:20:39;;;;;;;3.97;3.43;;;;;;;18.93;60.54;101034.44;5021650;28;20207;-81
2022/08/12 06:23:06;;;;;;;5.20;3.23;;;;;;;18.91;60.80;101026.59;5022159;28;20233;-80
2022/08/12 06:25:33;;;;;;;7.23;3.57;;;;;;;18.94;60.81;101015.00;5017488;28;20215;-79
2022/08/12 06:28:02;;;;;;;4.07;3.57;;;;;;;18.99;60.29;101026.25;5018213;28;20586;-79
2022/08/12 06:30:33;;;;;;;7.27;4.20;;;;;;;19.04;60.35;101045.41;5017912;28;20207;-79
2022/08/12 06:33:02;;;;;;;10.20;3.80;;;;;;;19.03;60.75;101033.97;5017932;28;20236;-81
2022/08/12 06:35:29;;;;;;;9.57;3.97;;;;;;;19.07;60.08;101049.69;5017716;28;20324;-79
2022/08/12 06:37:56;;;;;;;4.80;3.73;;;;;;;19.10;59.87;101052.22;5019246;28;20203;-81
2022/08/12 06:43:04;;;;;;;5.03;3.57;;;;;;;19.20;59.30;101088.78;5017495;28;20230;-80
2022/08/12 06:45:31;;;;;;;3.60;3.30;;;;;;;19.22;58.97;101088.72;5017222;28;20229;-81
2022/08/12 06:48:02;;;;;;;3.43;2.80;;;;;;;19.35;58.86;101104.94;5017399;28;20673;-81
2022/08/12 06:50:30;;;;;;;4.77;3.17;;;;;;;19.48;58.52;101110.53;5021066;28;20663;-80
2022/08/12 06:52:56;;;;;;;4.30;3.90;;;;;;;19.51;58.51;101128.94;5020941;28;20265;-81
2022/08/12 06:55:24;;;;;;;4.40;4.00;;;;;;;19.53;57.73;101138.50;5018713;28;20271;-80
2022/08/12 06:57:54;;;;;;;3.77;3.47;;;;;;;19.64;57.70;101152.13;5015756;28;20207;-80
2022/08/12 07:00:22;;;;;;;4.30;3.90;;;;;;;19.76;57.93;101155.16;5017147;28;20210;-80
2022/08/12 07:02:48;;;;;;;8.60;4.50;;;;;;;19.78;57.61;101153.31;5016110;28;20245;-81
2022/08/12 07:05:16;;;;;;;10.20;4.70;;;;;;;19.82;57.78;101147.81;5015208;28;20211;-75
2022/08/12 07:07:46;;;;;;;4.03;3.60;;;;;;;19.90;57.71;101154.53;5014646;28;20217;-78
2022/08/12 07:10:13;;;;;;;4.40;4.10;;;;;;;19.97;57.61;101151.53;5013835;28;20221;-78
2022/08/12 07:12:39;;;;;;;5.93;4.43;;;;;;;20.10;57.66;101156.25;5013720;28;20238;-78
2022/08/12 07:15:07;;;;;;;4.70;4.30;;;;;;;20.24;56.49;101173.22;5014223;28;20206;-78
2022/08/12 07:17:35;;;;;;;6.33;3.57;;;;;;;20.41;56.30;101195.41;5013898;28;20241;-78
2022/08/12 07:20:02;;;;;;;4.83;4.43;;;;;;;20.51;57.18;101188.72;5018933;28;20202;-78
2022/08/12 07:22:29;;;;;;;4.50;4.10;;;;;;;20.58;56.05;101200.78;5021008;28;20771;-78
2022/08/12 07:27:39;;;;;;;4.27;3.53;;;;;;;20.68;57.02;101185.31;5003803;28;20222;-78
2022/08/12 07:30:07;;;;;;;3.60;3.10;;;;;;;20.75;56.91;101186.72;5011815;28;20207;-79
2022/08/12 07:32:33;;;;;;;5.23;4.70;;;;;;;20.88;55.97;101197.56;5012389;28;20223;-79
2022/08/12 07:35:02;;;;;;;6.93;3.73;;;;;;;20.99;55.96;101228.88;5011872;28;20211;-79
2022/08/12 07:37:29;;;;;;;4.93;3.90;;;;;;;21.13;53.60;101258.28;5013753;28;20222;-79
2022/08/12 07:39:57;;;;;;;5.23;3.43;;;;;;;21.25;56.55;101250.59;5013958;28;20211;-78
2022/08/12 07:42:24;;;;;;;8.63;4.30;;;;;;;21.37;55.05;101244.69;5014217;28;20309;-79
2022/08/12 07:44:50;;;;;;;4.70;3.60;;;;;;;21.47;54.82;101275.19;5012955;28;20275;-79
2022/08/12 07:47:16;;;;;;;6.10;4.13;;;;;;;21.57;55.26;101267.59;5011832;28;20207;-79
2022/08/12 07:49:43;;;;;;;4.23;3.60;;;;;;;21.71;53.84;101296.13;5013180;28;20206;-79
2022/08/12 07:52:09;;;;;;;4.97;4.20;;;;;;;21.84;52.21;101345.03;5014138;28;20631;-78
2022/08/12 07:54:36;;;;;;;8.90;4.20;;;;;;;21.96;52.62;101368.34;5017225;28;20199;-78
2022/08/12 07:57:05;;;;;;;6.63;3.90;;;;;;;22.11;51.68;101377.28;5013400;28;20199;-79
2022/08/12 07:59:33;;;;;;;7.17;3.57;;;;;;;22.23;50.25;101415.69;5013408;28;20207;-79
2022/08/12 08:02:01;;;;;;;7.50;3.70;;;;;;;22.33;49.76;101454.19;5011226;28;20310;-79
2022/08/12 08:07:13;;;;;;;7.17;3.20;;;;;;;22.60;47.71;101510.44;5012024;28;20270;-79
2022/08/12 08:09:40;;;;;;;4.27;3.13;;;;;;;22.73;47.84;101533.75;5014038;28;20556;-79
2022/08/12 08:14:54;;;;;;;5.30;2.90;;;;;;;22.91;46.42;101571.84;5021688;28;20206;-79
2022/08/12 08:17:21;;;;;;;4.30;3.07;;;;;;;23.00;45.57;101593.53;5019434;28;20207;-79
2022/08/12 08:19:51;;;;;;;6.37;3.50;;;;;;;23.10;46.00;101609.94;5022194;28;20195;-79
2022/08/12 08:22:18;;;;;;;8.00;2.97;;;;;;;23.22;45.21;101613.75;5021246;28;20219;-78
2022/08/12 08:24:45;;;;;;;3.07;2.40;;;;;;;23.31;44.75;101617.69;5021454;28;20221;-78
2022/08/12 08:27:13;;;;;;;3.63;2.47;;;;;;;23.37;43.45;101662.69;5022113;28;20831;-79
2022/08/12 08:29:43;;;;;;;3.33;2.50;;;;;;;23.49;43.32;101703.81;5023036;28;20233;-79
2022/08/12 08:32:10;;;;;;;2.67;2.47;;;;;;;23.58;42.64;101711.31;5019727;28;20692;-79
2022/08/12 08:34:37;;;;;;;2.70;2.30;;;;;;;23.73;42.59;101736.31;5019915;28;20195;-79
2022/08/12 08:37:03;;;;;;;2.63;2.03;;;;;;;23.81;41.69;101755.44;5020094;28;20280;-79
2022/08/12 08:39:30;;;;;;;2.93;2.67;;;;;;;23.95;43.91;101707.56;5019793;28;20203;-79
2022/08/12 08:44:42;;;;;;;2.30;2.10;;;;;;;24.08;41.29;101728.22;5017195;28;20253;-79
2022/08/12 08:47:10;;;;;;;2.27;2.13;;;;;;;24.15;40.19;101785.63;5018993;28;20257;-79
2022/08/12 08:49:37;;;;;;;2.83;2.00;;;;;;;24.21;40.76;101811.13;5019478;28;20229;-79
2022/08/12 08:52:04;;;;;;;2.17;1.97;;;;;;;24.26;40.40;101814.38;5019385;28;20384;-79
2022/08/12 08:54:32;;;;;;;2.37;2.27;;;;;;;24.32;40.34;101814.94;5019334;28;20378;-79
2022/08/12 08:57:00;;;;;;;6.73;2.13;;;;;;;24.53;41.67;101796.03;5018970;28;20218;-79
2022/08/12 08:59:28;;;;;;;2.10;2.00;;;;;;;24.61;39.96;101775.09;5019071;28;20290;-79
2022/08/12 09:01:56;;;;;;;4.60;2.13;;;;;;;24.68;39.48;101810.34;5018775;28;20210;-78
2022/08/12 09:04:23;;;;;;;2.10;2.00;;;;;;;24.76;40.27;101834.78;5016914;28;20199;-79
2022/08/12 09:06:57;;;;;;;5.10;2.40;;;;;;;24.81;38.62;101834.53;5019473;28;20199;-78
2022/08/12 09:09:24;;;;;;;2.20;2.10;;;;;;;24.92;38.66;101835.63;5017692;28;20205;-78
2022/08/12 09:14:34;;;;;;;3.83;1.63;;;;;;;25.15;37.31;101889.56;5018296;28;20225;-79
2022/08/12 09:17:04;;;;;;;2.03;1.83;;;;;;;25.20;36.81;101921.38;5015849;28;20249;-78
2022/08/12 09:19:30;;;;;;;1.67;1.57;;;;;;;25.23;36.79;101924.75;5019530;28;20241;-78
2022/08/12 09:21:58;;;;;;;2.23;2.13;;;;;;;25.29;36.25;101916.41;5019305;28;20213;-78
2022/08/12 09:24:24;;;;;;;1.53;1.43;;;;;;;25.38;36.24;101952.44;5018832;28;20199;-78
2022/08/12 09:26:51;;;;;;;1.90;1.80;;;;;;;25.46;35.21;101960.00;5018326;28;20203;-78
2022/08/12 09:29:20;;;;;;;2.90;1.60;;;;;;;25.59;35.22;101941.44;5017656;28;20614;-78
2022/08/12 09:31:49;;;;;;;2.03;1.60;;;;;;;25.61;34.81;102001.94;5017403;28;20203;-78
2022/08/12 09:34:17;;;;;;;2.17;1.60;;;;;;;25.65;35.21;101982.06;5018788;28;20652;-79
2022/08/12 09:36:44;;;;;;;2.07;1.47;;;;;;;25.69;34.68;101988.13;5016640;28;20199;-80
2022/08/12 09:39:12;;;;;;;1.87;1.77;;;;;;;25.73;34.67;101974.47;5019902;28;20266;-79
2022/08/12 09:41:38;;;;;;;2.90;1.73;;;;;;;25.75;33.89;102006.47;5020202;28;20237;-79
2022/08/12 09:46:49;;;;;;;1.80;1.70;;;;;;;25.85;34.69;101961.31;5017682;28;20660;-79
2022/08/12 09:49:17;;;;;;;1.70;1.60;;;;;;;25.86;33.27;102021.88;5019657;28;20215;-79
2022/08/12 09:51:46;;;;;;;3.33;1.40;;;;;;;25.93;33.93;102023.31;5019060;28;20203;-79
2022/08/12 09:54:15;;;;;;;1.67;1.37;;;;;;;26.00;33.46;102032.69;5018893;28;20310;-78
2022/08/12 09:56:43;;;;;;;1.93;1.50;;;;;;;26.06;33.09;102026.97;5018960;28;20253;-79
2022/08/12 09:59:10;;;;;;;1.40;1.30;;;;;;;26.11;33.48;102005.28;5018240;28;20672;-78
2022/08/12 10:01:37;;;;;;;2.37;1.57;;;;;;;26.16;32.91;102029.94;5014527;28;20906;-77
2022/08/12 10:04:09;;;;;;;1.83;1.73;;;;;;;26.22;32.65;102042.97;5012560;28;20897;-78
2022/08/12 10:06:37;;;;;;;2.40;1.73;;;;;;;26.27;32.16;102048.91;5015328;28;20590;-77
2022/08/12 10:09:06;;;;;;;2.83;2.07;;;;;;;26.30;32.57;102048.75;5012277;28;20732;-76
2022/08/12 10:14:16;;;;;;;2.27;2.07;;;;;;;26.41;33.34;102020.47;5013411;28;20269;-77
2022/08/12 10:16:44;;;;;;;2.17;1.87;;;;;;;26.46;33.51;101992.47;5014045;28;20202;-78
2022/08/12 10:19:11;;;;;;;1.67;1.57;;;;;;;26.51;32.39;102003.72;5014729;28;20257;-78
2022/08/12 10:21:40;;;;;;;2.40;2.00;;;;;;;26.62;33.09;101989.72;5014937;28;20241;-78
2022/08/12 10:24:09;;;;;;;4.73;1.93;;;;;;;26.70;32.29;102010.66;5015304;28;20199;-77
2022/08/12 10:29:38;;;;;;;4.53;2.20;;;;;;;26.82;34.72;101956.31;5014704;28;20575;-77
2022/08/12 10:32:07;;;;;;;2.10;1.77;;;;;;;26.92;32.68;101946.72;5012577;28;20575;-78
2022/08/12 10:34:34;;;;;;;3.10;2.03;;;;;;;27.00;32.17;101980.22;5015124;28;20225;-78
2022/08/12 10:37:04;;;;;;;1.70;1.60;;;;;;;27.03;32.14;102010.34;5014477;28;20203;-78
2022/08/12 10:39:34;;;;;;;3.13;1.57;;;;;;;27.09;33.45;101993.03;5014739;28;20198;-78
2022/08/12 10:44:45;;;;;;;2.23;2.00;;;;;;;27.20;32.03;102022.69;5017081;28;20209;-79
2022/08/12 10:47:12;;;;;;;2.30;1.93;;;;;;;27.26;32.39;102010.75;5017752;28;20241;-79
2022/08/12 10:49:38;;;;;;;1.60;1.50;;;;;;;27.32;31.67;101999.63;5017081;28;20191;-79
2022/08/12 10:52:07;;;;;;;2.27;1.70;;;;;;;27.39;31.41;102040.31;5017253;28;20234;-79
2022/08/12 10:54:33;;;;;;;2.40;1.97;;;;;;;27.46;31.62;102012.13;5016166;28;20222;-79
2022/08/12 10:57:00;;;;;;;2.27;1.70;;;;;;;27.48;31.62;102015.56;5017208;28;20552;-79
2022/08/12 10:59:28;;;;;;;2.43;1.60;;;;;;;27.57;31.37;102006.06;5016512;28;20199;-80
2022/08/12 11:01:55;;;;;;;1.57;1.47;;;;;;;27.72;32.29;102007.72;5016176;28;20246;-80
2022/08/12 11:04:22;;;;;;;2.40;2.07;;;;;;;27.80;31.28;102028.69;5016805;28;20206;-80
2022/08/12 11:06:49;;;;;;;2.60;1.70;;;;;;;27.83;30.91;102028.47;5016171;28;21034;-81
2022/08/12 11:09:19;;;;;;;2.40;1.70;;;;;;;27.90;31.38;102019.94;5016338;28;20203;-81
2022/08/12 11:11:47;;;;;;;1.67;1.57;;;;;;;27.99;31.01;102004.16;5014576;28;20203;-82
2022/08/12 11:14:16;;;;;;;2.70;1.80;;;;;;;28.07;30.80;102023.31;5016995;28;20696;-82
2022/08/12 11:16:43;;;;;;;1.97;1.70;;;;;;;28.14;30.01;102067.56;5011605;28;20206;-80
2022/08/12 11:19:09;;;;;;;2.20;2.10;;;;;;;28.20;29.99;102067.16;5013899;28;20284;-80
2022/08/12 11:21:36;;;;;;;3.23;1.73;;;;;;;28.24;30.57;102027.53;5013072;28;20261;-82
2022/08/12 11:24:02;;;;;;;1.87;1.77;;;;;;;28.40;29.87;102008.53;5012880;28;20225;-81
2022/08/12 11:26:30;;;;;;;4.53;2.00;;;;;;;28.47;29.24;102066.25;5012508;28;20202;-81
2022/08/12 11:28:57;;;;;;;2.70;1.73;;;;;;;28.60;29.45;102083.28;5012557;28;20207;-80
2022/08/12 11:31:23;;;;;;;2.33;1.63;;;;;;;28.75;30.74;102092.09;5013030;28;20744;-81
2022/08/12 11:33:50;;;;;;;2.93;2.00;;;;;;;28.91;28.87;102071.22;5013809;28;20231;-82
2022/08/12 11:36:17;;;;;;;1.80;1.70;;;;;;;29.11;28.49;102091.34;5013661;28;20252;-80
2022/08/12 11:38:44;;;;;;;2.53;1.73;;;;;;;29.89;28.47;102116.25;5014115;28;20223;-82
2022/08/12 11:41:10;;;;;;;1.80;1.70;;;;;;;31.40;25.83;102186.47;5016458;28;20232;-82
2022/08/12 11:43:38;;;;;;;2.77;1.70;;;;;;;32.99;23.79;102282.44;5016167;28;20219;-81
2022/08/12 11:46:05;;;;;;;2.33;2.10;;;;;;;34.38;23.97;102324.53;5015672;28;20590;-81
2022/08/12 11:48:38;;;;;;;1.80;1.47;;;;;;;35.89;21.51;102349.31;5015106;28;20276;-82
2022/08/12 11:51:05;;;;;;;1.70;1.60;;;;;;;37.10;19.20;102447.16;5015044;28;20214;-82
2022/08/12 11:53:32;;;;;;;2.13;1.70;;;;;;;38.05;18.81;102500.13;5014282;28;20265;-81
2022/08/12 11:55:58;;;;;;;2.50;1.85;;;;;;;38.97;18.29;102488.63;5015411;28;20219;-81
2022/08/12 11:58:24;;;;;;;3.95;2.08;;;;;;;39.39;17.72;102509.53;5014944;28;20265;-82
2022/08/12 12:00:53;;;;;;;1.92;1.63;;;;;;;39.77;17.55;102518.13;5014692;28;20218;-81
2022/08/12 12:03:19;;;;;;;1.98;1.88;;;;;;;40.33;16.65;102491.72;4321124;28;10000830;-81
2022/08/12 12:05:46;;;;;;;1.88;1.55;;;;;;;40.59;16.27;102524.28;5014274;28;20310;-81
2022/08/12 12:08:20;;;;;;;2.03;1.65;;;;;;;40.71;17.30;102459.03;5016100;28;20238;-82
2022/08/12 12:10:46;;;;;;;1.95;1.83;;;;;;;40.37;16.45;102451.16;5016720;28;20206;-81
2022/08/12 12:13:12;;;;;;;3.85;1.65;;;;;;;40.44;16.03;102457.66;5014581;28;20281;-81
2022/08/12 12:15:39;;;;;;;1.85;1.75;;;;;;;40.41;16.19;102431.47;5015574;28;20210;-81
2022/08/12 12:18:07;;;;;;;1.83;1.60;;;;;;;40.07;17.11;102394.31;5016007;28;20238;-83
2022/08/12 12:20:34;;;;;;;2.95;2.20;;;;;;;40.14;16.34;102389.00;5015070;28;20215;-83
2022/08/12 12:23:00;;;;;;;3.08;1.80;;;;;;;40.19;17.19;102375.63;5014983;28;20226;-83
2022/08/12 12:25:27;;;;;;;2.10;1.95;;;;;;;40.83;17.33;102333.50;5014708;28;20207;-82
2022/08/12 12:27:55;;;;;;;1.77;1.67;;;;;;;40.95;16.02;102356.69;5014535;28;20214;-83
2022/08/12 12:30:21;;;;;;;2.28;2.08;;;;;;;40.60;16.59;102349.94;5014740;28;20672;-83
2022/08/12 12:32:48;;;;;;;2.60;2.05;;;;;;;39.87;16.58;102358.31;5013709;28;20231;-81
2022/08/12 12:35:15;;;;;;;1.98;1.73;;;;;;;38.91;17.48;102291.66;5013729;28;20230;-82
2022/08/12 12:37:56;;;;;;;3.00;1.90;;;;;;;38.41;17.62;102273.50;5014633;28;20260;-83
2022/08/12 12:40:24;;;;;;;2.83;1.75;;;;;;;37.91;17.56;102263.50;5014703;28;20219;-82
2022/08/12 12:42:51;;;;;;;3.10;1.85;;;;;;;37.41;17.90;102267.00;5015203;28;20234;-82
2022/08/12 12:45:18;;;;;;;2.15;1.90;;;;;;;37.31;18.47;102229.81;5015415;28;20207;-83
2022/08/12 12:47:55;;;;;;;2.47;1.87;;;;;;;37.21;19.31;102218.19;5015968;28;20211;-81
2022/08/12 12:50:23;;;;;;;5.60;1.90;;;;;;;37.00;18.92;102185.84;5016532;28;20242;-82
2022/08/12 12:52:50;;;;;;;1.93;1.83;;;;;;;36.87;19.17;102201.75;5015283;28;20579;-82
2022/08/12 12:55:17;;;;;;;1.80;1.70;;;;;;;36.60;20.48;102179.09;5016294;28;20230;-82
2022/08/12 12:57:44;;;;;;;1.80;1.57;;;;;;;36.30;20.77;102129.56;5016392;28;20346;-82
2022/08/12 13:00:16;;;;;;;3.87;2.20;;;;;;;35.95;20.03;102147.53;5015632;28;20253;-82
2022/08/12 13:02:44;;;;;;;1.93;1.70;;;;;;;35.66;19.82;102176.75;5015775;28;20285;-82
2022/08/12 13:05:11;;;;;;;1.97;1.77;;;;;;;35.26;19.96;102167.09;5015665;28;20207;-82
2022/08/12 13:07:40;;;;;;;2.47;1.70;;;;;;;34.86;21.48;102149.22;5016209;28;20700;-82
2022/08/12 13:10:08;;;;;;;1.70;1.60;;;;;;;34.72;20.89;102088.13;5015712;28;20214;-80
2022/08/12 13:12:34;;;;;;;2.57;1.73;;;;;;;34.67;21.12;102095.84;5016182;28;20235;-83
2022/08/12 13:15:02;;;;;;;2.30;1.83;;;;;;;34.64;20.86;102123.25;5015152;28;20285;-81
2022/08/12 13:17:30;;;;;;;2.03;1.70;;;;;;;34.54;21.15;102115.97;5014823;28;20260;-81
2022/08/12 13:19:56;;;;;;;1.87;1.70;;;;;;;34.45;20.42;102124.13;5016689;28;20781;-82
2022/08/12 13:22:23;;;;;;;1.90;1.67;;;;;;;34.33;20.75;102124.31;5018270;28;20242;-85
2022/08/12 13:24:53;;;;;;;2.00;1.40;;;;;;;34.31;21.30;102073.91;5017257;28;20269;-83